createdAt,value
2016-12-18T00:01:01.625Z,0
2016-12-18T00:02:11.138Z,0
2016-12-18T00:03:20.330Z,0
2016-12-18T00:04:29.557Z,0
2016-12-18T00:05:39.401Z,0
2016-12-18T00:06:48.903Z,0
2016-12-18T00:07:58.401Z,0
2016-12-18T00:09:07.865Z,0
2016-12-18T00:10:17.701Z,0
2016-12-18T00:11:27.185Z,0
2016-12-18T00:12:36.681Z,0
2016-12-18T00:13:46.468Z,0
2016-12-18T00:14:55.955Z,0
2016-12-18T00:16:05.759Z,0
2016-12-18T00:17:15.567Z,0
2016-12-18T00:18:25.102Z,0
2016-12-18T00:19:34.306Z,0
2016-12-18T00:20:44.227Z,0
2016-12-18T00:21:54.036Z,0
2016-12-18T00:23:03.551Z,0
2016-12-18T00:24:13.324Z,0
2016-12-18T00:25:22.829Z,0
2016-12-18T00:26:32.313Z,0
2016-12-18T00:27:42.139Z,0
2016-12-18T00:28:51.944Z,0
2016-12-18T00:30:01.889Z,0
2016-12-18T00:31:11.380Z,0
2016-12-18T00:32:21.176Z,0
2016-12-18T00:33:30.953Z,0
2016-12-18T00:34:40.709Z,0
2016-12-18T00:35:50.491Z,0
2016-12-18T00:37:00.295Z,0
2016-12-18T00:38:09.892Z,0
2016-12-18T00:39:19.371Z,0
2016-12-18T00:40:28.848Z,0
2016-12-18T00:41:38.390Z,0
2016-12-18T00:42:47.889Z,0
2016-12-18T00:43:57.770Z,0
2016-12-18T00:45:07.264Z,0
2016-12-18T00:46:17.057Z,0
2016-12-18T00:47:26.832Z,0
2016-12-18T00:48:36.357Z,0
2016-12-18T00:49:46.234Z,0
2016-12-18T00:50:56.063Z,0
2016-12-18T00:52:05.580Z,0
2016-12-18T00:53:15.358Z,0
2016-12-18T00:54:25.170Z,0
2016-12-18T00:55:34.683Z,0
2016-12-18T00:56:44.498Z,0
2016-12-18T00:57:54.029Z,0
2016-12-18T00:59:03.512Z,0
2016-12-18T01:00:12.989Z,0
2016-12-18T01:01:22.468Z,0
2016-12-18T01:02:32.361Z,0
2016-12-18T01:03:41.847Z,0
2016-12-18T01:04:51.353Z,0
2016-12-18T01:06:00.902Z,0
2016-12-18T01:07:10.450Z,0
2016-12-18T01:08:20.258Z,0
2016-12-18T01:09:29.736Z,0
2016-12-18T01:10:39.313Z,0
2016-12-18T01:11:49.105Z,0
2016-12-18T01:12:58.637Z,0
2016-12-18T01:14:08.486Z,0
2016-12-18T01:15:18.306Z,0
2016-12-18T01:16:27.465Z,0
2016-12-18T01:17:36.974Z,0
2016-12-18T01:18:46.757Z,0
2016-12-18T01:19:56.611Z,0
2016-12-18T01:21:05.788Z,0
2016-12-18T01:22:14.986Z,0
2016-12-18T01:23:24.499Z,0
2016-12-18T01:24:33.687Z,0
2016-12-18T01:25:43.185Z,0
2016-12-18T01:26:52.975Z,0
2016-12-18T01:28:02.818Z,0
2016-12-18T01:29:12.601Z,0
2016-12-18T01:30:22.422Z,0
2016-12-18T01:31:32.210Z,0
2016-12-18T01:32:42.015Z,0
2016-12-18T01:33:51.818Z,0
2016-12-18T01:35:01.311Z,0
2016-12-18T01:36:10.833Z,0
2016-12-18T01:37:20.606Z,0
2016-12-18T01:38:30.177Z,0
2016-12-18T01:39:39.655Z,0
2016-12-18T01:40:49.481Z,0
2016-12-18T01:41:58.960Z,0
2016-12-18T01:43:08.434Z,0
2016-12-18T01:44:18.228Z,0
2016-12-18T01:45:27.823Z,0
2016-12-18T01:46:37.695Z,0
2016-12-18T01:47:47.517Z,0
2016-12-18T01:48:57.307Z,0
2016-12-18T01:50:06.173Z,0
2016-12-18T01:51:16.037Z,0
2016-12-18T01:52:25.594Z,0
2016-12-18T01:53:35.409Z,0
2016-12-18T01:54:44.891Z,0
2016-12-18T01:55:54.696Z,0
2016-12-18T01:57:04.526Z,0
2016-12-18T01:58:14.000Z,0
2016-12-18T01:59:23.467Z,0
2016-12-18T02:00:33.246Z,0
2016-12-18T02:01:42.792Z,0
2016-12-18T02:02:52.637Z,0
2016-12-18T02:04:02.110Z,0
2016-12-18T02:05:11.924Z,0
2016-12-18T02:06:21.399Z,0
2016-12-18T02:07:31.262Z,0
2016-12-18T02:08:40.763Z,0
2016-12-18T02:09:50.593Z,0
2016-12-18T02:11:00.076Z,0
2016-12-18T02:12:09.581Z,0
2016-12-18T02:13:19.055Z,0
2016-12-18T02:14:28.261Z,0
2016-12-18T02:15:37.825Z,0
2016-12-18T02:16:47.345Z,0
2016-12-18T02:17:57.165Z,0
2016-12-18T02:19:06.943Z,0
2016-12-18T02:20:16.449Z,0
2016-12-18T02:21:26.293Z,0
2016-12-18T02:22:35.784Z,0
2016-12-18T02:23:45.307Z,0
2016-12-18T02:24:54.828Z,0
2016-12-18T02:26:04.032Z,0
2016-12-18T02:27:13.858Z,0
2016-12-18T02:28:23.802Z,0
2016-12-18T02:29:32.997Z,0
2016-12-18T02:30:43.027Z,0
2016-12-18T02:31:52.519Z,0
2016-12-18T02:33:02.164Z,0
2016-12-18T02:34:11.951Z,0
2016-12-18T02:35:21.486Z,0
2016-12-18T02:36:31.272Z,0
2016-12-18T02:37:40.782Z,0
2016-12-18T02:38:50.608Z,0
2016-12-18T02:40:00.092Z,0
2016-12-18T02:41:09.633Z,0
2016-12-18T02:42:19.420Z,0
2016-12-18T02:43:29.408Z,0
2016-12-18T02:44:39.203Z,0
2016-12-18T02:45:48.685Z,0
2016-12-18T02:46:57.953Z,0
2016-12-18T02:48:07.479Z,0
2016-12-18T02:49:17.369Z,0
2016-12-18T02:50:26.864Z,0
2016-12-18T02:51:36.332Z,0
2016-12-18T02:52:45.896Z,0
2016-12-18T02:53:55.752Z,0
2016-12-18T02:55:05.551Z,0
2016-12-18T02:56:14.712Z,0
2016-12-18T02:57:24.525Z,0
2016-12-18T02:58:33.695Z,0
2016-12-18T02:59:43.496Z,0
2016-12-18T03:00:53.275Z,0
2016-12-18T03:02:02.766Z,0
2016-12-18T03:03:11.987Z,0
2016-12-18T03:04:21.465Z,0
2016-12-18T03:05:31.305Z,0
2016-12-18T03:06:41.088Z,0
2016-12-18T03:07:50.959Z,0
2016-12-18T03:09:00.451Z,0
2016-12-18T03:10:10.539Z,0
2016-12-18T03:11:20.353Z,0
2016-12-18T03:12:29.965Z,0
2016-12-18T03:13:39.770Z,0
2016-12-18T03:14:49.076Z,0
2016-12-18T03:15:58.567Z,0
2016-12-18T03:17:08.350Z,0
2016-12-18T03:18:17.839Z,0
2016-12-18T03:19:27.655Z,0
2016-12-18T03:20:37.128Z,0
2016-12-18T03:21:46.286Z,0
2016-12-18T03:22:56.123Z,0
2016-12-18T03:24:05.656Z,0
2016-12-18T03:25:15.534Z,0
2016-12-18T03:26:25.367Z,0
2016-12-18T03:27:35.144Z,0
2016-12-18T03:28:44.312Z,0
2016-12-18T03:29:54.121Z,0
2016-12-18T03:31:03.291Z,0
2016-12-18T03:32:12.895Z,0
2016-12-18T03:33:22.725Z,0
2016-12-18T03:34:32.210Z,0
2016-12-18T03:35:41.682Z,0
2016-12-18T03:36:51.177Z,0
2016-12-18T03:38:00.664Z,0
2016-12-18T03:39:09.825Z,0
2016-12-18T03:40:19.037Z,0
2016-12-18T03:41:28.525Z,0
2016-12-18T03:42:38.317Z,0
2016-12-18T03:43:48.131Z,0
2016-12-18T03:44:57.601Z,0
2016-12-18T03:46:07.098Z,0
2016-12-18T03:47:16.900Z,0
2016-12-18T03:48:26.823Z,0
2016-12-18T03:49:36.599Z,0
2016-12-18T03:50:46.100Z,0
2016-12-18T03:51:55.919Z,0
2016-12-18T03:53:05.868Z,0
2016-12-18T03:54:15.365Z,0
2016-12-18T03:55:25.143Z,0
2016-12-18T03:56:34.707Z,0
2016-12-18T03:57:44.536Z,0
2016-12-18T03:58:53.741Z,0
2016-12-18T04:00:03.566Z,0
2016-12-18T04:01:12.730Z,0
2016-12-18T04:02:22.504Z,0
2016-12-18T04:03:32.451Z,0
2016-12-18T04:04:42.266Z,0
2016-12-18T04:05:52.048Z,0
2016-12-18T04:07:01.838Z,0
2016-12-18T04:08:11.312Z,0
2016-12-18T04:09:20.784Z,0
2016-12-18T04:10:29.980Z,0
2016-12-18T04:11:39.766Z,0
2016-12-18T04:12:49.344Z,0
2016-12-18T04:13:58.812Z,0
2016-12-18T04:15:08.309Z,0
2016-12-18T04:16:17.779Z,0
2016-12-18T04:17:27.597Z,0
2016-12-18T04:18:37.068Z,0
2016-12-18T04:19:46.874Z,0
2016-12-18T04:20:56.902Z,0
2016-12-18T04:22:06.439Z,0
2016-12-18T04:23:16.302Z,0
2016-12-18T04:24:25.782Z,0
2016-12-18T04:25:35.815Z,0
2016-12-18T04:26:45.355Z,0
2016-12-18T04:27:54.523Z,0
2016-12-18T04:29:04.336Z,0
2016-12-18T04:30:13.820Z,0
2016-12-18T04:31:23.605Z,0
2016-12-18T04:32:33.504Z,0
2016-12-18T04:33:43.270Z,0
2016-12-18T04:34:52.773Z,0
2016-12-18T04:36:02.253Z,0
2016-12-18T04:37:12.128Z,0
2016-12-18T04:38:21.925Z,0
2016-12-18T04:39:31.407Z,0
2016-12-18T04:40:41.206Z,0
2016-12-18T04:41:50.801Z,0
2016-12-18T04:43:00.590Z,0
2016-12-18T04:44:10.431Z,0
2016-12-18T04:45:20.230Z,0
2016-12-18T04:46:29.708Z,0
2016-12-18T04:47:39.514Z,0
2016-12-18T04:48:49.247Z,0
2016-12-18T04:49:58.810Z,0
2016-12-18T04:51:08.035Z,0
2016-12-18T04:52:17.855Z,0
2016-12-18T04:53:27.319Z,0
2016-12-18T04:54:36.930Z,0
2016-12-18T04:55:46.759Z,0
2016-12-18T04:56:56.570Z,0
2016-12-18T04:58:06.061Z,0
2016-12-18T04:59:15.618Z,0
2016-12-18T05:00:25.401Z,0
2016-12-18T05:01:34.883Z,0
2016-12-18T05:02:44.070Z,0
2016-12-18T05:03:53.571Z,0
2016-12-18T05:05:02.776Z,0
2016-12-18T05:06:12.564Z,0
2016-12-18T05:07:21.760Z,0
2016-12-18T05:08:31.252Z,0
2016-12-18T05:09:41.064Z,0
2016-12-18T05:10:50.556Z,0
2016-12-18T05:12:00.349Z,0
2016-12-18T05:13:10.133Z,0
2016-12-18T05:14:19.916Z,0
2016-12-18T05:15:29.148Z,0
2016-12-18T05:16:38.651Z,0
2016-12-18T05:17:48.124Z,0
2016-12-18T05:18:57.630Z,0
2016-12-18T05:20:07.634Z,0
2016-12-18T05:21:17.113Z,0
2016-12-18T05:22:26.896Z,0
2016-12-18T05:23:36.686Z,0
2016-12-18T05:24:46.234Z,0
2016-12-18T05:25:55.709Z,0
2016-12-18T05:27:05.229Z,0
2016-12-18T05:28:15.027Z,0
2016-12-18T05:29:24.888Z,0
2016-12-18T05:30:34.696Z,0
2016-12-18T05:31:44.005Z,0
2016-12-18T05:32:53.505Z,0
2016-12-18T05:34:03.509Z,0
2016-12-18T05:35:12.699Z,0
2016-12-18T05:36:22.175Z,0
2016-12-18T05:37:31.961Z,0
2016-12-18T05:38:41.778Z,0
2016-12-18T05:39:51.361Z,0
2016-12-18T05:41:01.286Z,0
2016-12-18T05:42:11.096Z,0
2016-12-18T05:43:20.896Z,0
2016-12-18T05:44:30.372Z,0
2016-12-18T05:45:39.866Z,0
2016-12-18T05:46:49.716Z,0
2016-12-18T05:47:59.495Z,0
2016-12-18T05:49:09.140Z,0
2016-12-18T05:50:19.038Z,0
2016-12-18T05:51:28.821Z,0
2016-12-18T05:52:38.596Z,0
2016-12-18T05:53:47.977Z,0
2016-12-18T05:54:57.513Z,0
2016-12-18T05:56:06.993Z,0
2016-12-18T05:57:16.499Z,0
2016-12-18T05:58:26.319Z,0
2016-12-18T05:59:36.116Z,0
2016-12-18T06:00:45.924Z,0
2016-12-18T06:01:55.419Z,0
2016-12-18T06:03:04.902Z,0
2016-12-18T06:04:14.060Z,0
2016-12-18T06:05:23.557Z,0
2016-12-18T06:06:33.354Z,0
2016-12-18T06:07:42.854Z,0
2016-12-18T06:08:52.456Z,0
2016-12-18T06:10:02.232Z,0
2016-12-18T06:11:12.024Z,0
2016-12-18T06:12:21.808Z,0
2016-12-18T06:13:31.004Z,0
2016-12-18T06:14:40.208Z,0
2016-12-18T06:15:50.054Z,0
2016-12-18T06:16:59.966Z,0
2016-12-18T06:18:09.461Z,0
2016-12-18T06:19:19.253Z,0
2016-12-18T06:20:28.728Z,0
2016-12-18T06:21:38.217Z,0
2016-12-18T06:22:48.031Z,0
2016-12-18T06:23:57.503Z,0
2016-12-18T06:25:07.039Z,0
2016-12-18T06:26:16.539Z,0
2016-12-18T06:27:26.040Z,0
2016-12-18T06:28:35.884Z,0
2016-12-18T06:29:45.722Z,0
2016-12-18T06:30:55.237Z,0
2016-12-18T06:32:04.722Z,0
2016-12-18T06:33:14.239Z,0
2016-12-18T06:34:24.188Z,0
2016-12-18T06:35:33.975Z,0
2016-12-18T06:36:43.775Z,0
2016-12-18T06:37:53.344Z,0
2016-12-18T06:39:03.229Z,0
2016-12-18T06:40:13.059Z,0
2016-12-18T06:41:22.860Z,0
2016-12-18T06:42:32.397Z,4
2016-12-18T06:43:42.235Z,4
2016-12-18T06:44:52.065Z,0
2016-12-18T06:46:01.981Z,0
2016-12-18T06:47:11.482Z,4
2016-12-18T06:48:20.947Z,0
2016-12-18T06:49:30.498Z,4
2016-12-18T06:50:39.707Z,4
2016-12-18T06:51:49.595Z,8
2016-12-18T06:52:59.074Z,8
2016-12-18T06:54:08.599Z,12
2016-12-18T06:55:18.064Z,16
2016-12-18T06:56:27.867Z,16
2016-12-18T06:57:37.681Z,16
2016-12-18T06:58:47.462Z,24
2016-12-18T06:59:57.298Z,28
2016-12-18T07:01:07.110Z,28
2016-12-18T07:02:16.973Z,40
2016-12-18T07:03:26.775Z,44
2016-12-18T07:04:36.558Z,52
2016-12-18T07:05:46.378Z,60
2016-12-18T07:06:55.864Z,68
2016-12-18T07:08:05.036Z,80
2016-12-18T07:09:14.221Z,92
2016-12-18T07:10:23.390Z,104
2016-12-18T07:11:32.893Z,116
2016-12-18T07:12:42.713Z,124
2016-12-18T07:13:52.580Z,136
2016-12-18T07:15:02.220Z,136
2016-12-18T07:16:11.722Z,136
2016-12-18T07:17:21.075Z,136
2016-12-18T07:18:30.246Z,128
2016-12-18T07:19:39.719Z,120
2016-12-18T07:20:49.244Z,112
2016-12-18T07:21:58.509Z,112
2016-12-18T07:23:08.425Z,124
2016-12-18T07:24:17.619Z,124
2016-12-18T07:25:27.092Z,128
2016-12-18T07:26:36.607Z,140
2016-12-18T07:27:46.142Z,152
2016-12-18T07:28:55.073Z,148
2016-12-18T07:30:04.701Z,160
2016-12-18T07:31:14.166Z,180
2016-12-18T07:32:23.956Z,192
2016-12-18T07:33:33.260Z,204
2016-12-18T07:34:43.052Z,212
2016-12-18T07:35:52.524Z,236
2016-12-18T07:37:01.755Z,240
2016-12-18T07:38:11.379Z,204
2016-12-18T07:39:20.863Z,192
2016-12-18T07:40:30.788Z,184
2016-12-18T07:41:40.259Z,188
2016-12-18T07:42:50.081Z,196
2016-12-18T07:43:59.551Z,200
2016-12-18T07:45:09.090Z,192
2016-12-18T07:46:18.899Z,184
2016-12-18T07:47:28.372Z,180
2016-12-18T07:48:38.265Z,204
2016-12-18T07:49:47.455Z,164
2016-12-18T07:50:56.972Z,164
2016-12-18T07:52:06.861Z,188
2016-12-18T07:53:16.782Z,196
2016-12-18T07:54:26.606Z,192
2016-12-18T07:55:36.081Z,200
2016-12-18T07:56:45.561Z,216
2016-12-18T07:57:55.032Z,220
2016-12-18T07:59:04.820Z,292
2016-12-18T08:00:14.643Z,436
2016-12-18T08:01:24.456Z,488
2016-12-18T08:02:34.240Z,668
2016-12-18T08:03:44.051Z,716
2016-12-18T08:04:53.863Z,892
2016-12-18T08:06:03.652Z,1184
2016-12-18T08:07:12.706Z,1344
2016-12-18T08:08:22.507Z,1088
2016-12-18T08:09:32.346Z,1132
2016-12-18T08:10:41.510Z,1324
2016-12-18T08:11:50.988Z,1356
2016-12-18T08:13:00.503Z,1432
2016-12-18T08:14:10.352Z,1412
2016-12-18T08:15:19.890Z,1300
2016-12-18T08:16:29.689Z,1412
2016-12-18T08:17:39.487Z,1452
2016-12-18T08:18:48.961Z,1668
2016-12-18T08:19:58.512Z,1848
2016-12-18T08:21:07.711Z,2048
2016-12-18T08:22:17.192Z,1960
2016-12-18T08:23:26.698Z,1916
2016-12-18T08:24:36.172Z,1916
2016-12-18T08:25:45.950Z,1892
2016-12-18T08:26:55.740Z,1916
2016-12-18T08:28:05.522Z,1648
2016-12-18T08:29:15.297Z,1664
2016-12-18T08:30:25.092Z,1632
2016-12-18T08:31:34.901Z,1664
2016-12-18T08:32:44.070Z,1600
2016-12-18T08:33:53.548Z,1544
2016-12-18T08:35:03.556Z,1320
2016-12-18T08:36:13.095Z,1220
2016-12-18T08:37:22.606Z,1280
2016-12-18T08:38:32.122Z,1304
2016-12-18T08:39:41.620Z,1244
2016-12-18T08:40:51.452Z,1264
2016-12-18T08:42:01.241Z,1268
2016-12-18T08:43:11.043Z,1344
2016-12-18T08:44:20.942Z,1476
2016-12-18T08:45:30.751Z,1584
2016-12-18T08:46:40.528Z,1652
2016-12-18T08:47:49.707Z,1424
2016-12-18T08:48:59.438Z,1516
2016-12-18T08:50:08.703Z,1464
2016-12-18T08:51:18.178Z,1696
2016-12-18T08:52:27.697Z,1812
2016-12-18T08:53:37.193Z,1844
2016-12-18T08:54:46.968Z,1752
2016-12-18T08:55:56.491Z,1612
2016-12-18T08:57:06.420Z,1692
2016-12-18T08:58:16.275Z,1760
2016-12-18T08:59:26.070Z,1864
2016-12-18T09:00:18.345Z,1884
2016-12-18T09:01:28.149Z,1840
2016-12-18T09:02:37.933Z,1788
2016-12-18T09:03:47.715Z,1860
2016-12-18T09:04:57.209Z,1624
2016-12-18T09:06:06.996Z,1668
2016-12-18T09:07:16.655Z,1600
2016-12-18T09:08:26.538Z,1592
2016-12-18T09:09:36.532Z,1508
2016-12-18T09:10:46.236Z,1480
2016-12-18T09:11:55.699Z,1540
2016-12-18T09:13:05.198Z,1524
2016-12-18T09:14:14.733Z,1632
2016-12-18T09:15:24.515Z,1404
2016-12-18T09:16:33.852Z,1480
2016-12-18T09:17:43.636Z,1208
2016-12-18T09:18:53.136Z,1360
2016-12-18T09:20:02.620Z,1440
2016-12-18T09:21:11.830Z,1812
2016-12-18T09:22:21.640Z,1792
2016-12-18T09:23:31.210Z,1784
2016-12-18T09:24:40.775Z,1520
2016-12-18T09:25:50.553Z,1688
2016-12-18T09:27:00.337Z,1784
2016-12-18T09:28:16.160Z,1500
2016-12-18T09:29:25.916Z,1480
2016-12-18T09:30:35.098Z,1260
2016-12-18T09:31:44.911Z,1268
2016-12-18T09:32:54.858Z,1212
2016-12-18T09:34:04.094Z,1160
2016-12-18T09:35:13.880Z,1240
2016-12-18T09:36:23.841Z,1224
2016-12-18T09:37:33.619Z,1464
2016-12-18T09:38:43.474Z,1576
2016-12-18T09:39:53.280Z,1684
2016-12-18T09:41:03.090Z,1996
2016-12-18T09:42:12.864Z,2416
2016-12-18T09:43:22.650Z,2652
2016-12-18T09:44:32.449Z,3516
2016-12-18T09:45:41.630Z,4896
2016-12-18T09:46:51.423Z,5764
2016-12-18T09:48:00.902Z,7804
2016-12-18T09:49:10.414Z,8340
2016-12-18T09:50:20.214Z,8932
2016-12-18T09:51:30.040Z,7488
2016-12-18T09:52:39.222Z,7312
2016-12-18T09:53:48.708Z,5164
2016-12-18T09:54:58.507Z,4224
2016-12-18T09:56:08.304Z,4536
2016-12-18T09:57:18.103Z,4216
2016-12-18T09:58:27.621Z,3716
2016-12-18T09:59:37.505Z,3268
2016-12-18T10:00:46.388Z,2952
2016-12-18T10:01:55.925Z,3680
2016-12-18T10:03:05.423Z,3596
2016-12-18T10:04:14.908Z,3444
2016-12-18T10:05:24.431Z,4704
2016-12-18T10:06:33.928Z,4100
2016-12-18T10:07:44.073Z,3792
2016-12-18T10:08:53.887Z,2872
2016-12-18T10:10:03.734Z,2472
2016-12-18T10:11:13.560Z,2664
2016-12-18T10:12:23.055Z,3228
2016-12-18T10:13:32.832Z,3212
2016-12-18T10:14:42.642Z,3144
2016-12-18T10:15:52.162Z,3564
2016-12-18T10:17:01.363Z,3852
2016-12-18T10:18:10.576Z,4040
2016-12-18T10:19:19.972Z,4148
2016-12-18T10:20:29.148Z,3612
2016-12-18T10:21:38.760Z,3476
2016-12-18T10:22:48.540Z,4152
2016-12-18T10:23:58.029Z,4800
2016-12-18T10:25:07.812Z,5720
2016-12-18T10:26:17.599Z,5476
2016-12-18T10:27:27.206Z,4124
2016-12-18T10:28:36.451Z,3564
2016-12-18T10:29:45.979Z,3388
2016-12-18T10:30:55.780Z,3920
2016-12-18T10:32:05.582Z,4076
2016-12-18T10:33:15.151Z,4760
2016-12-18T10:34:24.989Z,7508
2016-12-18T10:35:34.166Z,9336
2016-12-18T10:36:43.659Z,7324
2016-12-18T10:37:53.494Z,5484
2016-12-18T10:39:03.288Z,3560
2016-12-18T10:40:13.072Z,3560
2016-12-18T10:41:22.588Z,3812
2016-12-18T10:42:32.107Z,3684
2016-12-18T10:44:13.519Z,3984
2016-12-18T10:45:23.304Z,3776
2016-12-18T10:46:33.114Z,3048
2016-12-18T10:47:42.619Z,3024
2016-12-18T10:48:52.106Z,2684
2016-12-18T10:50:01.914Z,2864
2016-12-18T10:51:11.695Z,2684
2016-12-18T10:52:21.482Z,2776
2016-12-18T10:53:30.990Z,3096
2016-12-18T10:54:40.469Z,2424
2016-12-18T10:55:50.292Z,1924
2016-12-18T10:57:00.084Z,2020
2016-12-18T10:58:09.902Z,3092
2016-12-18T10:59:19.403Z,2668
2016-12-18T11:00:29.208Z,2200
2016-12-18T11:01:38.977Z,1988
2016-12-18T11:02:48.144Z,1800
2016-12-18T11:03:57.750Z,1896
2016-12-18T11:05:07.548Z,1892
2016-12-18T11:06:17.100Z,1980
2016-12-18T11:07:26.892Z,2472
2016-12-18T11:08:36.404Z,2724
2016-12-18T11:09:45.267Z,2644
2016-12-18T11:10:55.051Z,2464
2016-12-18T11:12:05.112Z,2856
2016-12-18T11:13:14.596Z,2628
2016-12-18T11:14:24.323Z,3100
2016-12-18T11:15:33.818Z,3132
2016-12-18T11:16:43.312Z,3324
2016-12-18T11:17:53.104Z,3288
2016-12-18T11:19:02.581Z,2616
2016-12-18T11:20:12.106Z,2308
2016-12-18T11:21:21.957Z,2108
2016-12-18T11:22:31.448Z,2208
2016-12-18T11:23:41.299Z,2800
2016-12-18T11:24:51.126Z,3620
2016-12-18T11:26:00.660Z,3552
2016-12-18T11:27:10.136Z,3236
2016-12-18T11:28:20.025Z,3176
2016-12-18T11:29:29.553Z,2924
2016-12-18T11:30:39.648Z,2152
2016-12-18T11:31:49.449Z,1804
2016-12-18T11:32:58.929Z,2544
2016-12-18T11:34:08.722Z,3528
2016-12-18T11:35:18.552Z,4036
2016-12-18T11:36:28.058Z,3568
2016-12-18T11:37:37.522Z,2700
2016-12-18T11:38:46.726Z,2388
2016-12-18T11:39:56.191Z,2060
2016-12-18T11:41:06.114Z,1996
2016-12-18T11:42:15.322Z,2180
2016-12-18T11:43:24.492Z,1972
2016-12-18T11:44:33.683Z,2172
2016-12-18T11:45:43.497Z,2336
2016-12-18T11:46:52.979Z,2232
2016-12-18T11:48:02.505Z,2684
2016-12-18T11:49:12.338Z,2780
2016-12-18T11:50:21.810Z,3220
2016-12-18T11:51:31.637Z,2876
2016-12-18T11:52:41.028Z,2500
2016-12-18T11:53:50.814Z,1820
2016-12-18T11:55:00.303Z,1780
2016-12-18T11:56:09.841Z,1928
2016-12-18T11:57:19.352Z,2080
2016-12-18T11:58:28.510Z,2168
2016-12-18T11:59:37.990Z,2448
2016-12-18T12:00:47.987Z,2020
2016-12-18T12:01:57.155Z,1888
2016-12-18T12:03:07.139Z,1808
2016-12-18T12:04:16.929Z,1824
2016-12-18T12:05:26.475Z,1820
2016-12-18T12:06:35.979Z,1984
2016-12-18T12:07:45.779Z,1748
2016-12-18T12:08:55.565Z,1468
2016-12-18T12:10:05.415Z,1312
2016-12-18T12:11:15.255Z,1432
2016-12-18T12:12:25.056Z,1488
2016-12-18T12:13:34.906Z,1684
2016-12-18T12:14:44.745Z,1880
2016-12-18T12:15:54.333Z,2152
2016-12-18T12:17:04.148Z,2072
2016-12-18T12:18:14.099Z,2616
2016-12-18T12:19:23.629Z,2616
2016-12-18T12:20:33.455Z,2668
2016-12-18T12:21:43.231Z,3204
2016-12-18T12:22:52.742Z,3584
2016-12-18T12:24:02.219Z,3164
2016-12-18T12:25:12.015Z,3428
2016-12-18T12:26:21.488Z,3260
2016-12-18T12:27:31.098Z,4192
2016-12-18T12:28:40.670Z,4564
2016-12-18T12:29:50.208Z,5368
2016-12-18T12:30:59.466Z,5372
2016-12-18T12:32:09.273Z,6300
2016-12-18T12:33:18.807Z,5984
2016-12-18T12:34:28.291Z,6920
2016-12-18T12:35:38.116Z,5744
2016-12-18T12:36:47.897Z,5296
2016-12-18T12:37:57.384Z,4944
2016-12-18T12:39:06.884Z,3556
2016-12-18T12:40:16.670Z,3488
2016-12-18T12:41:26.167Z,3816
2016-12-18T12:42:35.970Z,4260
2016-12-18T12:43:45.444Z,4528
2016-12-18T12:44:54.949Z,3856
2016-12-18T12:46:04.925Z,4504
2016-12-18T12:47:14.549Z,6296
2016-12-18T12:48:24.514Z,8188
2016-12-18T12:49:34.347Z,8136
2016-12-18T12:50:44.196Z,8004
2016-12-18T12:51:54.031Z,7500
2016-12-18T12:53:03.847Z,7392
2016-12-18T12:54:13.800Z,6156
2016-12-18T12:55:23.274Z,5404
2016-12-18T12:56:32.892Z,4404
2016-12-18T12:57:42.086Z,3332
2016-12-18T12:58:51.924Z,2484
2016-12-18T13:00:01.756Z,2768
2016-12-18T13:01:11.634Z,2520
2016-12-18T13:02:20.849Z,2572
2016-12-18T13:03:30.673Z,2764
2016-12-18T13:04:40.503Z,2412
2016-12-18T13:05:50.313Z,2028
2016-12-18T13:06:59.496Z,2048
2016-12-18T13:08:08.689Z,2248
2016-12-18T13:09:18.578Z,1936
2016-12-18T13:10:28.055Z,1520
2016-12-18T13:11:37.564Z,1312
2016-12-18T13:12:47.404Z,1276
2016-12-18T13:13:56.939Z,1388
2016-12-18T13:15:06.419Z,1032
2016-12-18T13:16:16.245Z,1080
2016-12-18T13:17:25.727Z,1112
2016-12-18T13:18:35.245Z,1192
2016-12-18T13:19:45.153Z,1348
2016-12-18T13:20:54.961Z,1244
2016-12-18T13:22:04.456Z,1356
2016-12-18T13:23:14.322Z,1572
2016-12-18T13:24:24.149Z,1408
2016-12-18T13:25:33.633Z,1268
2016-12-18T13:26:43.127Z,1288
2016-12-18T13:27:52.977Z,1416
2016-12-18T13:29:02.455Z,1444
2016-12-18T13:30:11.943Z,1224
2016-12-18T13:31:21.935Z,1156
2016-12-18T13:32:31.421Z,1360
2016-12-18T13:33:41.253Z,1180
2016-12-18T13:34:51.178Z,1060
2016-12-18T13:36:00.445Z,1160
2016-12-18T13:37:10.359Z,1384
2016-12-18T13:38:19.894Z,1476
2016-12-18T13:39:29.734Z,1072
2016-12-18T13:40:39.552Z,1280
2016-12-18T13:41:49.420Z,1700
2016-12-18T13:42:58.904Z,1900
2016-12-18T13:44:08.408Z,1716
2016-12-18T13:45:17.978Z,1752
2016-12-18T13:46:26.845Z,1972
2016-12-18T13:47:36.742Z,2016
2016-12-18T13:48:46.640Z,1700
2016-12-18T13:49:55.845Z,1824
2016-12-18T13:51:05.689Z,1540
2016-12-18T13:52:15.548Z,1444
2016-12-18T13:53:25.407Z,1460
2016-12-18T13:54:35.255Z,1420
2016-12-18T13:55:45.102Z,1856
2016-12-18T13:56:54.411Z,1832
2016-12-18T13:58:03.914Z,1988
2016-12-18T13:59:13.755Z,1952
2016-12-18T14:00:23.600Z,1284
2016-12-18T14:01:33.128Z,756
2016-12-18T14:02:42.937Z,616
2016-12-18T14:03:52.878Z,796
2016-12-18T14:05:02.422Z,1168
2016-12-18T14:06:12.395Z,1316
2016-12-18T14:07:21.879Z,1296
2016-12-18T14:08:31.454Z,1328
2016-12-18T14:09:41.250Z,1272
2016-12-18T14:10:50.521Z,1312
2016-12-18T14:12:00.368Z,1372
2016-12-18T14:13:10.190Z,1344
2016-12-18T14:14:20.018Z,1344
2016-12-18T14:15:29.843Z,1392
2016-12-18T14:16:39.702Z,1336
2016-12-18T14:17:49.516Z,1300
2016-12-18T14:18:59.537Z,1316
2016-12-18T14:20:09.387Z,1488
2016-12-18T14:21:18.911Z,1376
2016-12-18T14:22:28.416Z,1224
2016-12-18T14:23:37.902Z,1228
2016-12-18T14:24:47.728Z,1160
2016-12-18T14:25:57.653Z,1188
2016-12-18T14:27:06.843Z,976
2016-12-18T14:28:16.365Z,900
2016-12-18T14:29:25.680Z,668
2016-12-18T14:30:35.467Z,444
2016-12-18T14:31:45.301Z,384
2016-12-18T14:32:55.120Z,364
2016-12-18T14:34:04.301Z,492
2016-12-18T14:35:14.109Z,580
2016-12-18T14:36:23.978Z,724
2016-12-18T14:37:33.774Z,696
2016-12-18T14:38:43.293Z,588
2016-12-18T14:39:53.123Z,548
2016-12-18T14:41:02.956Z,552
2016-12-18T14:42:12.447Z,584
2016-12-18T14:43:22.646Z,588
2016-12-18T14:44:32.160Z,536
2016-12-18T14:45:41.977Z,468
2016-12-18T14:46:51.506Z,484
2016-12-18T14:48:01.322Z,468
2016-12-18T14:49:10.832Z,444
2016-12-18T14:50:20.628Z,376
2016-12-18T14:51:30.106Z,364
2016-12-18T14:52:39.946Z,364
2016-12-18T14:53:49.440Z,340
2016-12-18T14:54:58.934Z,324
2016-12-18T14:56:08.534Z,296
2016-12-18T14:57:18.011Z,276
2016-12-18T14:58:27.841Z,264
2016-12-18T14:59:37.374Z,256
2016-12-18T15:00:47.188Z,256
2016-12-18T15:01:56.414Z,240
2016-12-18T15:03:06.254Z,220
2016-12-18T15:04:15.756Z,204
2016-12-18T15:05:24.809Z,188
2016-12-18T15:06:34.692Z,184
2016-12-18T15:07:44.218Z,176
2016-12-18T15:08:54.100Z,164
2016-12-18T15:10:03.909Z,148
2016-12-18T15:11:13.082Z,132
2016-12-18T15:12:22.653Z,116
2016-12-18T15:13:32.476Z,104
2016-12-18T15:14:42.311Z,92
2016-12-18T15:15:51.914Z,80
2016-12-18T15:17:01.743Z,68
2016-12-18T15:18:11.550Z,60
2016-12-18T15:19:21.049Z,52
2016-12-18T15:20:30.866Z,40
2016-12-18T15:21:39.744Z,36
2016-12-18T15:22:49.235Z,32
2016-12-18T15:23:59.043Z,24
2016-12-18T15:25:08.855Z,20
2016-12-18T15:26:18.708Z,16
2016-12-18T15:27:27.913Z,12
2016-12-18T15:28:37.723Z,8
2016-12-18T15:29:47.269Z,4
2016-12-18T15:30:57.183Z,4
2016-12-18T15:32:07.043Z,4
2016-12-18T15:33:16.599Z,4
2016-12-18T15:34:26.076Z,4
2016-12-18T15:35:35.590Z,4
2016-12-18T15:36:45.396Z,4
2016-12-18T15:37:54.887Z,0
2016-12-18T15:39:04.386Z,0
2016-12-18T15:40:13.953Z,0
2016-12-18T15:41:23.491Z,0
2016-12-18T15:42:33.337Z,0
2016-12-18T15:43:42.849Z,0
2016-12-18T15:44:55.993Z,0
2016-12-18T15:46:05.832Z,0
2016-12-18T15:47:15.690Z,0
2016-12-18T15:48:25.598Z,0
2016-12-18T15:49:35.114Z,0
2016-12-18T15:50:44.630Z,0
2016-12-18T15:51:53.838Z,0
2016-12-18T15:53:03.376Z,0
2016-12-18T15:54:12.914Z,0
2016-12-18T15:55:22.426Z,0
2016-12-18T15:56:32.515Z,0
2016-12-18T15:57:42.494Z,0
2016-12-18T15:58:52.402Z,0
2016-12-18T16:00:01.937Z,0
2016-12-18T16:01:11.772Z,0
2016-12-18T16:02:21.302Z,0
2016-12-18T16:03:31.158Z,0
2016-12-18T16:04:40.988Z,0
2016-12-18T16:05:50.509Z,0
2016-12-18T16:07:00.039Z,0
2016-12-18T16:08:09.910Z,0
2016-12-18T16:09:19.780Z,0
2016-12-18T16:10:29.320Z,0
2016-12-18T16:11:39.207Z,0
2016-12-18T16:12:48.759Z,0
2016-12-18T16:13:58.286Z,0
2016-12-18T16:15:08.160Z,0
2016-12-18T16:16:17.713Z,0
2016-12-18T16:17:27.221Z,0
2016-12-18T16:18:37.038Z,0
2016-12-18T16:19:46.296Z,0